Time;durP1;ratioP1;P1;durP2;ratioP2;P2;SDS_P1;SDS_P2;PMS_P1;PMS_P2;Temp;Humidity;BMP_temperature;BMP_pressure;BME280_temperature;BME280_humidity;BME280_pressure;Samples;Min_cycle;Max_cycle;Signal;HPM_P1;HPM_P2
2022/09/28 00:01:26;;;;;;;0.32;0.32;;;9.20;99.90;;;;;;4413752;32;20708;-66
2022/09/28 00:03:58;;;;;;;0.50;0.50;;;9.30;99.90;;;;;;4395038;32;20062;-66
2022/09/28 00:06:26;;;;;;;0.35;0.35;;;9.40;99.90;;;;;;4391857;32;20077;-66
2022/09/28 00:08:52;;;;;;;0.85;0.85;;;9.40;99.90;;;;;;4413977;32;20593;-66
2022/09/28 00:11:21;;;;;;;0.45;0.45;;;9.40;99.90;;;;;;4412941;32;20113;-66
2022/09/28 00:13:50;;;;;;;0.40;0.40;;;9.40;99.90;;;;;;4402777;32;20137;-66
2022/09/28 00:16:18;;;;;;;0.30;0.30;;;9.30;99.90;;;;;;4411818;32;20085;-66
2022/09/28 00:18:44;;;;;;;0.60;0.60;;;9.30;99.90;;;;;;4412963;32;20066;-66
2022/09/28 00:21:15;;;;;;;0.37;0.37;;;9.20;99.90;;;;;;4412369;32;20405;-66
2022/09/28 00:24:41;;;;;;;0.22;0.22;;;9.20;99.90;;;;;;4416346;32;20086;-66
2022/09/28 00:26:29;;;;;;;0.40;0.40;;;9.20;99.90;;;;;;4405441;32;20419;-66
2022/09/28 00:28:57;;;;;;;0.37;0.37;;;9.30;99.90;;;;;;4415995;32;20089;-66
2022/09/28 00:31:28;;;;;;;2.90;1.12;;;9.20;99.90;;;;;;4416822;32;20132;-66
2022/09/28 00:33:56;;;;;;;0.30;0.30;;;9.20;99.90;;;;;;4396541;32;20097;-66
2022/09/28 00:36:22;;;;;;;0.30;0.30;;;9.10;99.90;;;;;;4394055;32;20193;-66
2022/09/28 00:38:50;;;;;;;2.17;0.60;;;9.10;99.90;;;;;;4415871;32;20521;-66
2022/09/28 00:41:15;;;;;;;0.30;0.30;;;9.10;99.90;;;;;;4416758;32;20077;-66
2022/09/28 00:43:41;;;;;;;0.35;0.35;;;9.10;99.90;;;;;;4408315;32;20077;-66
2022/09/28 00:46:17;;;;;;;0.30;0.30;;;9.20;99.90;;;;;;4415640;32;20509;-66
2022/09/28 00:48:53;;;;;;;0.30;0.30;;;9.20;99.90;;;;;;4415332;32;20136;-66
2022/09/28 00:51:20;;;;;;;0.30;0.30;;;9.10;99.90;;;;;;4413440;32;20069;-66
2022/09/28 00:53:46;;;;;;;0.37;0.37;;;9.10;99.90;;;;;;4414442;32;20081;-66
2022/09/28 00:56:17;;;;;;;0.73;0.40;;;9.10;99.90;;;;;;4415501;32;20153;-66
2022/09/28 00:58:47;;;;;;;0.30;0.30;;;9.10;99.90;;;;;;4416195;32;20093;-66
2022/09/28 01:01:13;;;;;;;0.30;0.30;;;9.20;99.90;;;;;;4418371;32;20130;-66
2022/09/28 01:03:44;;;;;;;0.30;0.30;;;9.30;99.90;;;;;;4400078;32;20502;-66
2022/09/28 01:06:22;;;;;;;0.30;0.30;;;9.30;99.90;;;;;;4394780;32;20565;-66
2022/09/28 01:08:50;;;;;;;1.37;0.88;;;9.30;99.90;;;;;;4414431;32;20081;-64
2022/09/28 01:11:17;;;;;;;0.40;0.40;;;9.40;99.90;;;;;;4417224;32;20101;-64
2022/09/28 01:13:44;;;;;;;0.40;0.40;;;9.30;99.90;;;;;;4406927;32;20201;-64
2022/09/28 01:16:25;;;;;;;0.30;0.30;;;9.40;99.90;;;;;;4414308;32;20169;-64
2022/09/28 01:19:30;;;;;;;0.35;0.35;;;9.40;99.90;;;;;;4413155;32;20085;-64
2022/09/28 01:22:18;;;;;;;0.30;0.30;;;9.30;99.90;;;;;;4396914;32;20123;-65
2022/09/28 01:24:45;;;;;;;2.78;0.45;;;9.20;99.90;;;;;;4416600;32;20085;-65
2022/09/28 01:27:29;;;;;;;0.30;0.30;;;9.10;99.90;;;;;;4419431;32;20474;-65
2022/09/28 01:30:06;;;;;;;0.60;0.60;;;9.10;99.90;;;;;;4412783;32;20098;-64
2022/09/28 01:33:02;;;;;;;0.30;0.30;;;9.10;99.90;;;;;;4412007;32;20093;-64
2022/09/28 01:35:34;;;;;;;0.25;0.25;;;9.20;99.90;;;;;;4375580;32;20110;-64
2022/09/28 01:38:06;;;;;;;0.37;0.37;;;9.30;99.90;;;;;;4410826;32;20077;-65
2022/09/28 01:40:32;;;;;;;0.32;0.32;;;9.40;99.90;;;;;;4415648;32;20081;-65
2022/09/28 01:43:02;;;;;;;0.20;0.20;;;9.40;99.90;;;;;;4411163;32;20081;-64
2022/09/28 01:45:33;;;;;;;3.72;0.52;;;9.50;99.90;;;;;;4407395;32;20100;-64
2022/09/28 01:48:03;;;;;;;0.60;0.60;;;9.50;99.90;;;;;;4412297;32;20189;-64
2022/09/28 01:50:35;;;;;;;0.35;0.35;;;9.40;99.90;;;;;;4414101;32;20101;-65
2022/09/28 01:53:11;;;;;;;0.30;0.30;;;9.40;99.90;;;;;;4413982;32;20061;-65
2022/09/28 01:55:42;;;;;;;0.30;0.30;;;9.30;99.90;;;;;;4414966;32;20066;-65
2022/09/28 01:58:11;;;;;;;;;;;9.30;99.90;;;;;;4413480;32;20061;-66
2022/09/28 02:00:40;;;;;;;0.40;0.40;;;9.30;99.90;;;;;;4412802;32;19976;-65
2022/09/28 02:03:18;;;;;;;0.30;0.30;;;9.30;99.90;;;;;;4408023;32;20064;-65
2022/09/28 02:05:51;;;;;;;0.40;0.40;;;9.20;99.90;;;;;;4389928;32;20518;-65
2022/09/28 02:08:37;;;;;;;0.20;0.20;;;9.10;99.90;;;;;;4411960;32;20074;-65
2022/09/28 02:11:11;;;;;;;0.30;0.30;;;9.10;99.90;;;;;;4401721;32;20074;-65
2022/09/28 02:13:42;;;;;;;0.55;0.55;;;9.20;99.90;;;;;;4407672;32;20081;-65
2022/09/28 02:16:13;;;;;;;;;;;9.20;99.90;;;;;;4413878;32;20786;-65
2022/09/28 02:18:38;;;;;;;0.37;0.37;;;9.30;99.90;;;;;;4415081;32;19973;-65
2022/09/28 02:21:11;;;;;;;0.30;0.30;;;9.20;99.90;;;;;;4413613;32;20061;-65
2022/09/28 02:23:40;;;;;;;0.65;0.65;;;9.30;99.90;;;;;;4413203;32;20078;-65
2022/09/28 02:26:10;;;;;;;0.37;0.37;;;9.30;99.90;;;;;;4417728;32;20160;-65
2022/09/28 02:28:36;;;;;;;0.40;0.40;;;9.30;99.90;;;;;;4415318;32;20131;-65
2022/09/28 02:31:01;;;;;;;3.83;0.60;;;9.30;99.90;;;;;;4413023;32;20097;-65
2022/09/28 02:33:35;;;;;;;0.70;0.43;;;9.40;99.90;;;;;;4403527;32;20064;-65
2022/09/28 02:36:02;;;;;;;0.30;0.30;;;9.50;99.90;;;;;;4392471;32;20501;-65
2022/09/28 02:38:29;;;;;;;0.40;0.40;;;9.40;99.90;;;;;;4411746;32;20089;-65
2022/09/28 02:41:34;;;;;;;0.55;0.55;;;9.20;99.90;;;;;;4413907;32;20066;-65
2022/09/28 02:44:40;;;;;;;0.52;0.52;;;9.20;99.90;;;;;;4381583;32;20077;-64
2022/09/28 02:47:35;;;;;;;0.40;0.40;;;9.20;99.90;;;;;;4403475;32;20072;-65
2022/09/28 02:50:27;;;;;;;0.30;0.30;;;9.30;99.90;;;;;;4404873;32;20093;-65
2022/09/28 02:53:06;;;;;;;0.85;0.60;;;9.30;99.90;;;;;;4400805;32;20088;-65
2022/09/28 02:56:00;;;;;;;0.50;0.50;;;9.30;99.90;;;;;;4414983;32;20113;-65
2022/09/28 02:58:44;;;;;;;0.30;0.30;;;9.30;99.90;;;;;;4401979;32;20069;-65
2022/09/28 03:01:27;;;;;;;0.32;0.32;;;9.30;99.90;;;;;;4414185;32;20066;-65
2022/09/28 03:04:04;;;;;;;0.30;0.30;;;9.30;99.90;;;;;;4395251;32;20266;-65
2022/09/28 03:06:38;;;;;;;0.37;0.37;;;9.30;99.90;;;;;;4398852;32;20089;-65
2022/09/28 03:09:41;;;;;;;0.45;0.45;;;9.30;99.90;;;;;;4415524;32;20069;-65
2022/09/28 03:12:12;;;;;;;0.40;0.40;;;9.20;99.90;;;;;;4395521;32;20070;-65
2022/09/28 03:14:38;;;;;;;0.30;0.30;;;9.30;99.90;;;;;;4404361;32;20061;-65
2022/09/28 03:17:03;;;;;;;0.50;0.35;;;9.30;99.90;;;;;;4411633;32;20085;-65
2022/09/28 03:19:32;;;;;;;0.88;0.70;;;9.30;99.90;;;;;;4413031;32;20101;-65
2022/09/28 03:21:58;;;;;;;0.30;0.30;;;9.10;99.90;;;;;;4413635;32;20468;-65
2022/09/28 03:24:23;;;;;;;0.40;0.40;;;9.00;99.90;;;;;;4417173;32;20074;-65
2022/09/28 03:26:49;;;;;;;0.98;0.47;;;9.00;99.90;;;;;;4415915;32;20584;-65
2022/09/28 03:29:15;;;;;;;0.45;0.45;;;9.00;99.90;;;;;;4412238;32;20073;-65
2022/09/28 03:31:40;;;;;;;0.50;0.50;;;8.90;99.90;;;;;;4414389;32;20088;-65
2022/09/28 03:34:06;;;;;;;0.40;0.40;;;8.90;99.90;;;;;;4396606;32;20081;-65
2022/09/28 03:36:31;;;;;;;0.40;0.40;;;8.60;99.90;;;;;;4394584;32;20422;-65
2022/09/28 03:38:58;;;;;;;0.50;0.50;;;8.60;99.90;;;;;;4412438;32;20057;-65
2022/09/28 03:41:24;;;;;;;0.40;0.40;;;8.50;99.90;;;;;;4413440;32;20073;-65
2022/09/28 03:43:49;;;;;;;0.40;0.40;;;8.60;99.90;;;;;;4408564;32;20454;-65
2022/09/28 03:46:15;;;;;;;0.62;0.62;;;8.60;99.90;;;;;;4412528;32;20073;-65
2022/09/28 03:48:40;;;;;;;0.68;0.55;;;8.60;99.90;;;;;;4414541;32;20078;-65
2022/09/28 03:51:08;;;;;;;0.45;0.45;;;8.60;99.90;;;;;;4412157;32;20077;-65
2022/09/28 03:53:35;;;;;;;1.30;0.62;;;8.60;99.90;;;;;;4412786;32;20128;-65
2022/09/28 03:56:04;;;;;;;16.55;0.47;;;8.50;99.90;;;;;;4412923;32;20124;-65
2022/09/28 03:58:29;;;;;;;0.40;0.40;;;8.50;99.90;;;;;;4416753;32;20497;-65
2022/09/28 04:01:03;;;;;;;0.50;0.50;;;8.50;99.90;;;;;;4417338;32;20082;-65
2022/09/28 04:03:28;;;;;;;0.50;0.50;;;8.40;99.90;;;;;;4403512;32;20488;-65
2022/09/28 04:05:54;;;;;;;2.00;0.60;;;8.40;99.90;;;;;;4391929;32;20146;-65
2022/09/28 04:08:19;;;;;;;0.40;0.40;;;8.40;99.90;;;;;;4415827;32;20129;-65
2022/09/28 04:10:46;;;;;;;0.20;0.20;;;8.40;99.90;;;;;;4415996;32;20132;-65
2022/09/28 04:13:12;;;;;;;0.32;0.32;;;8.30;99.90;;;;;;4410702;32;20082;-64
2022/09/28 04:15:37;;;;;;;0.30;0.30;;;8.30;99.90;;;;;;4408226;32;20078;-64
2022/09/28 04:18:04;;;;;;;0.30;0.30;;;8.40;99.90;;;;;;4415291;32;20136;-64
2022/09/28 04:20:29;;;;;;;0.40;0.40;;;8.40;99.90;;;;;;4415420;32;20292;-65
2022/09/28 04:22:56;;;;;;;0.20;0.20;;;8.40;99.90;;;;;;4381065;32;20472;-64
2022/09/28 04:25:22;;;;;;;0.40;0.40;;;8.40;99.90;;;;;;4361789;32;20090;-64
2022/09/28 04:29:20;;;;;;;0.30;0.30;;;8.40;99.90;;;;;;4352008;32;20586;-64
2022/09/28 04:30:33;;;;;;;0.52;0.52;;;8.30;99.90;;;;;;4338426;32;20101;-64
2022/09/28 04:32:59;;;;;;;0.40;0.40;;;8.40;99.90;;;;;;4382442;32;20124;-64
2022/09/28 04:35:24;;;;;;;0.57;0.57;;;8.40;99.90;;;;;;4388062;32;20116;-64
2022/09/28 04:37:50;;;;;;;0.82;0.82;;;8.40;99.90;;;;;;4413136;32;20097;-65
2022/09/28 04:40:16;;;;;;;0.60;0.60;;;8.40;99.90;;;;;;4417554;32;20564;-64
2022/09/28 04:42:41;;;;;;;0.35;0.35;;;8.40;99.90;;;;;;4414572;32;20963;-64
2022/09/28 04:45:07;;;;;;;0.50;0.50;;;8.40;99.90;;;;;;4407005;32;20109;-64
2022/09/28 04:47:33;;;;;;;0.30;0.30;;;8.40;99.90;;;;;;4414664;32;20061;-64
2022/09/28 04:49:58;;;;;;;0.30;0.30;;;8.30;99.90;;;;;;4414698;32;20061;-65
2022/09/28 04:52:25;;;;;;;1.00;0.80;;;8.30;99.90;;;;;;4395245;32;20076;-64
2022/09/28 04:54:51;;;;;;;0.40;0.40;;;8.40;99.90;;;;;;4363922;32;20596;-64
2022/09/28 04:57:16;;;;;;;0.85;0.85;;;8.30;99.90;;;;;;4415660;32;20094;-64
2022/09/28 04:59:42;;;;;;;0.60;0.60;;;8.40;99.90;;;;;;4412577;32;20143;-65
2022/09/28 05:02:07;;;;;;;0.70;0.70;;;8.50;99.90;;;;;;4400834;32;20213;-64
2022/09/28 05:04:33;;;;;;;0.50;0.50;;;8.60;99.90;;;;;;4359158;32;20074;-64
2022/09/28 05:06:58;;;;;;;0.40;0.40;;;8.50;99.90;;;;;;4354219;32;20133;-64
2022/09/28 05:09:24;;;;;;;0.30;0.30;;;8.50;99.90;;;;;;4351710;32;20184;-64
2022/09/28 05:11:51;;;;;;;0.30;0.30;;;8.50;99.90;;;;;;4346190;32;20597;-64
2022/09/28 05:14:18;;;;;;;0.30;0.30;;;8.50;99.90;;;;;;4355635;32;20176;-64
2022/09/28 05:16:44;;;;;;;0.37;0.37;;;8.60;99.90;;;;;;4372189;32;20314;-64
2022/09/28 05:19:10;;;;;;;0.20;0.20;;;8.70;99.90;;;;;;4322186;32;21363;-64
2022/09/28 05:21:35;;;;;;;6.45;0.60;;;8.70;99.90;;;;;;4307932;32;20150;-64
2022/09/28 05:24:06;;;;;;;0.40;0.40;;;8.80;99.90;;;;;;4278570;32;20306;-64
2022/09/28 05:26:33;;;;;;;1.08;0.93;;;8.60;99.90;;;;;;4276788;32;20765;-64
2022/09/28 05:28:59;;;;;;;1.55;1.37;;;8.60;99.90;;;;;;4308920;32;20740;-64
2022/09/28 05:31:26;;;;;;;0.35;0.35;;;8.70;99.90;;;;;;4323928;32;20417;-65
2022/09/28 05:33:52;;;;;;;0.30;0.30;;;8.80;99.90;;;;;;4329543;32;20475;-64
2022/09/28 05:36:19;;;;;;;0.30;0.30;;;8.80;99.90;;;;;;4313887;32;21059;-64
2022/09/28 05:38:48;;;;;;;0.73;0.73;;;8.90;99.90;;;;;;4321642;32;20252;-64
2022/09/28 05:41:16;;;;;;;0.35;0.35;;;8.90;99.90;;;;;;4344301;32;20093;-64
2022/09/28 05:43:45;;;;;;;0.45;0.45;;;8.90;99.90;;;;;;4349302;32;20131;-64
2022/09/28 05:46:11;;;;;;;1.33;0.70;;;8.90;99.90;;;;;;4374638;32;20327;-64
2022/09/28 05:48:36;;;;;;;0.30;0.30;;;8.90;99.90;;;;;;4386181;32;20550;-64
2022/09/28 05:51:02;;;;;;;0.43;0.43;;;8.90;99.90;;;;;;4362535;32;20069;-64
2022/09/28 05:53:27;;;;;;;0.35;0.35;;;8.90;99.90;;;;;;4368306;32;20270;-64
2022/09/28 05:55:56;;;;;;;0.40;0.40;;;8.90;99.90;;;;;;4372594;32;20120;-64
2022/09/28 05:58:22;;;;;;;0.30;0.30;;;8.90;99.90;;;;;;4371824;32;20105;-64
2022/09/28 06:00:54;;;;;;;0.30;0.30;;;9.00;99.90;;;;;;4354029;32;20125;-64
2022/09/28 06:03:20;;;;;;;0.30;0.30;;;9.00;99.90;;;;;;4328098;32;21380;-63
2022/09/28 06:05:46;;;;;;;1.35;0.82;;;9.00;99.90;;;;;;4340964;32;20117;-63
2022/09/28 06:08:11;;;;;;;1.08;0.65;;;9.00;99.90;;;;;;4357192;32;20525;-63
2022/09/28 06:10:37;;;;;;;0.30;0.30;;;9.10;99.90;;;;;;4359537;32;20117;-64
2022/09/28 06:13:03;;;;;;;2.47;0.85;;;9.10;99.90;;;;;;4365735;32;20504;-64
2022/09/28 06:15:32;;;;;;;0.50;0.50;;;9.00;99.90;;;;;;4372391;32;20218;-64
2022/09/28 06:18:01;;;;;;;0.40;0.40;;;9.00;99.90;;;;;;4376362;32;20081;-64
2022/09/28 06:20:30;;;;;;;0.62;0.60;;;9.10;99.90;;;;;;4352237;32;20121;-64
2022/09/28 06:22:55;;;;;;;1.15;1.02;;;9.10;99.90;;;;;;4353610;32;20889;-64
2022/09/28 06:25:22;;;;;;;0.50;0.50;;;9.10;99.90;;;;;;4370237;32;20142;-64
2022/09/28 06:27:56;;;;;;;0.30;0.30;;;9.10;99.90;;;;;;4375153;32;20152;-64
2022/09/28 06:30:25;;;;;;;22.60;1.52;;;9.10;99.90;;;;;;4360410;32;20254;-64
2022/09/28 06:32:53;;;;;;;0.62;0.57;;;9.10;99.90;;;;;;4352651;32;20224;-64
2022/09/28 06:35:21;;;;;;;1.12;1.10;;;9.10;99.90;;;;;;4351257;32;20089;-64
2022/09/28 06:37:47;;;;;;;0.65;0.65;;;9.10;99.90;;;;;;4373240;32;20591;-64
2022/09/28 06:40:12;;;;;;;0.57;0.50;;;9.20;99.90;;;;;;4372142;32;20121;-65
2022/09/28 06:42:38;;;;;;;0.68;0.68;;;9.20;99.90;;;;;;4372309;32;20505;-65
2022/09/28 06:45:04;;;;;;;2.17;0.50;;;9.20;99.90;;;;;;4376142;32;21081;-65
2022/09/28 06:47:32;;;;;;;0.30;0.30;;;9.30;99.90;;;;;;4371765;32;20109;-65
2022/09/28 06:49:58;;;;;;;0.37;0.37;;;9.30;99.90;;;;;;4359706;32;20857;-65
2022/09/28 06:52:24;;;;;;;0.35;0.35;;;9.40;99.90;;;;;;4360176;32;20358;-65
2022/09/28 06:54:50;;;;;;;0.35;0.35;;;9.40;99.90;;;;;;4379558;32;20093;-66
2022/09/28 06:57:15;;;;;;;0.50;0.50;;;9.40;99.90;;;;;;4377601;32;20651;-66
2022/09/28 06:59:41;;;;;;;0.60;0.60;;;9.50;99.90;;;;;;4365105;32;20326;-65
2022/09/28 07:02:11;;;;;;;0.60;0.60;;;9.50;99.90;;;;;;4362585;32;20089;-63
2022/09/28 07:04:41;;;;;;;0.40;0.40;;;9.50;99.90;;;;;;4355461;32;20108;-65
2022/09/28 07:07:09;;;;;;;0.62;0.45;;;9.60;99.90;;;;;;4364324;32;20105;-65
2022/09/28 07:09:35;;;;;;;0.37;0.37;;;9.60;99.90;;;;;;4381251;32;20804;-66
2022/09/28 07:12:02;;;;;;;1.60;0.50;;;9.70;99.90;;;;;;4377221;32;20081;-65
2022/09/28 07:14:29;;;;;;;0.40;0.40;;;9.70;99.90;;;;;;4369280;32;22410;-65
2022/09/28 07:16:54;;;;;;;1.35;0.60;;;9.70;99.90;;;;;;4373048;32;20188;-66
2022/09/28 07:19:20;;;;;;;0.62;0.60;;;9.80;99.90;;;;;;4360778;32;20116;-65
2022/09/28 07:21:46;;;;;;;0.40;0.40;;;9.80;99.90;;;;;;4360778;32;21037;-65
2022/09/28 07:24:13;;;;;;;0.43;0.43;;;9.90;99.90;;;;;;4367656;32;20235;-65
2022/09/28 07:26:38;;;;;;;5.47;0.85;;;10.00;99.90;;;;;;4380698;32;20956;-65
2022/09/28 07:29:04;;;;;;;0.60;0.60;;;10.10;99.90;;;;;;4360358;32;20315;-65
2022/09/28 07:31:32;;;;;;;0.55;0.55;;;10.20;99.90;;;;;;4347557;32;20406;-65
2022/09/28 07:33:58;;;;;;;1.05;0.85;;;10.20;99.90;;;;;;4340702;32;20300;-65
2022/09/28 07:36:23;;;;;;;0.65;0.65;;;10.30;99.90;;;;;;4356250;32;20358;-66
2022/09/28 07:38:49;;;;;;;0.40;0.40;;;10.30;99.90;;;;;;4375792;32;20117;-66
2022/09/28 07:41:20;;;;;;;0.40;0.40;;;10.30;99.90;;;;;;4367582;32;20089;-66
2022/09/28 07:43:45;;;;;;;0.57;0.57;;;10.30;99.90;;;;;;4380434;32;21757;-66
2022/09/28 07:46:11;;;;;;;0.30;0.30;;;10.30;99.90;;;;;;4382644;32;20077;-66
2022/09/28 07:48:39;;;;;;;0.45;0.45;;;10.20;99.90;;;;;;4368121;32;20263;-66
2022/09/28 07:51:04;;;;;;;0.50;0.50;;;10.00;99.90;;;;;;4352653;32;20267;-66
2022/09/28 07:53:30;;;;;;;7.32;0.85;;;10.20;99.90;;;;;;4335991;32;25138;-67
2022/09/28 07:56:04;;;;;;;0.62;0.62;;;10.20;99.90;;;;;;4367201;32;20270;-67
2022/09/28 07:58:31;;;;;;;1.98;0.45;;;10.40;99.90;;;;;;4374446;32;20164;-66
2022/09/28 08:00:59;;;;;;;0.30;0.30;;;10.30;99.90;;;;;;4362721;32;22782;-66
2022/09/28 08:03:26;;;;;;;0.55;0.55;;;10.40;99.90;;;;;;4346237;32;20093;-66
2022/09/28 08:06:00;;;;;;;0.60;0.60;;;10.40;99.90;;;;;;4353827;32;20348;-66
2022/09/28 08:08:25;;;;;;;13.77;2.47;;;10.50;99.90;;;;;;4361995;32;20132;-66
2022/09/28 08:10:52;;;;;;;0.50;0.50;;;10.60;99.90;;;;;;4377809;32;20705;-66
2022/09/28 08:13:18;;;;;;;7.87;0.85;;;10.60;99.90;;;;;;4379705;32;20627;-66
2022/09/28 08:15:47;;;;;;;2.33;0.57;;;10.60;99.90;;;;;;4378218;32;20135;-66
2022/09/28 08:18:12;;;;;;;1.42;0.80;;;10.60;99.90;;;;;;4365533;32;20303;-66
2022/09/28 08:21:45;;;;;;;0.80;0.70;;;10.70;99.90;;;;;;4351931;32;20800;-66
2022/09/28 08:23:23;;;;;;;2.40;1.10;;;10.70;99.90;;;;;;4342676;32;20702;-66
2022/09/28 08:25:52;;;;;;;0.43;0.43;;;10.80;99.90;;;;;;4381502;32;22307;-66
2022/09/28 08:28:18;;;;;;;0.47;0.47;;;10.90;99.90;;;;;;4382087;32;20188;-66
2022/09/28 08:30:45;;;;;;;0.50;0.50;;;10.90;99.90;;;;;;4354545;32;20116;-66
2022/09/28 08:33:12;;;;;;;0.90;0.73;;;11.00;99.90;;;;;;4363425;32;144457;-66
2022/09/28 08:35:39;;;;;;;0.40;0.40;;;11.20;99.90;;;;;;4360930;32;20073;-66
2022/09/28 08:38:04;;;;;;;2.35;0.85;;;11.30;99.90;;;;;;4376193;32;20076;-66
2022/09/28 08:40:36;;;;;;;0.68;0.68;;;11.40;99.90;;;;;;4377063;32;20081;-66
2022/09/28 08:43:09;;;;;;;1.35;0.68;;;11.40;99.90;;;;;;4375701;32;20143;-66
2022/09/28 08:45:35;;;;;;;0.30;0.30;;;11.40;99.90;;;;;;4373376;32;20168;-65
2022/09/28 08:49:09;;;;;;;0.50;0.50;;;11.40;99.90;;;;;;4370467;32;20149;-65
2022/09/28 08:51:05;;;;;;;0.40;0.40;;;11.30;99.90;;;;;;4343591;32;20284;-65
2022/09/28 08:53:44;;;;;;;0.80;0.80;;;11.30;99.90;;;;;;4360497;32;20824;-65
2022/09/28 08:56:17;;;;;;;0.50;0.50;;;11.30;99.90;;;;;;4377221;32;20340;-66
2022/09/28 08:58:48;;;;;;;0.30;0.30;;;11.40;99.90;;;;;;4375251;32;20275;-66
2022/09/28 09:01:17;;;;;;;;;;;11.40;99.90;;;;;;4367336;32;20612;-66
2022/09/28 09:03:44;;;;;;;0.30;0.30;;;11.50;99.90;;;;;;4366507;32;20135;-66
2022/09/28 09:06:34;;;;;;;0.50;0.50;;;11.50;99.90;;;;;;4358899;32;20106;-65
2022/09/28 09:09:29;;;;;;;0.60;0.60;;;11.70;99.90;;;;;;4356682;32;20124;-66
2022/09/28 09:12:17;;;;;;;0.40;0.40;;;11.60;99.90;;;;;;4367257;32;20267;-65
2022/09/28 09:14:59;;;;;;;0.40;0.40;;;11.60;99.90;;;;;;4370989;32;20113;-66
2022/09/28 09:17:49;;;;;;;0.77;0.32;;;11.60;99.90;;;;;;4368999;32;20113;-66
2022/09/28 09:20:19;;;;;;;0.50;0.50;;;11.80;99.90;;;;;;4336207;32;20617;-66
2022/09/28 09:23:09;;;;;;;0.30;0.30;;;11.90;99.90;;;;;;4349230;32;20644;-65
2022/09/28 09:25:55;;;;;;;0.85;0.85;;;12.20;99.90;;;;;;4363112;32;20121;-66
2022/09/28 09:28:34;;;;;;;0.40;0.40;;;12.30;99.90;;;;;;4351755;32;20376;-66
2022/09/28 09:31:20;;;;;;;0.30;0.30;;;12.50;99.90;;;;;;4347700;32;21311;-65
2022/09/28 09:34:14;;;;;;;0.40;0.40;;;12.70;99.90;;;;;;4362986;32;20269;-65
2022/09/28 09:37:00;;;;;;;2.20;0.65;;;12.90;99.90;;;;;;4354922;32;20454;-66
2022/09/28 09:39:35;;;;;;;0.40;0.40;;;12.90;99.90;;;;;;4352730;32;20966;-67
2022/09/28 09:42:09;;;;;;;0.45;0.45;;;13.00;99.90;;;;;;4381985;32;20662;-66
2022/09/28 09:44:51;;;;;;;0.30;0.30;;;12.90;99.90;;;;;;4377278;32;20088;-66
2022/09/28 09:47:29;;;;;;;0.40;0.40;;;12.80;99.90;;;;;;4376796;32;20976;-66
2022/09/28 09:50:04;;;;;;;1.27;1.00;;;12.60;99.90;;;;;;4368551;32;20846;-66
2022/09/28 09:52:54;;;;;;;0.32;0.32;;;12.60;99.90;;;;;;4366175;32;21009;-66
2022/09/28 09:55:35;;;;;;;0.30;0.30;;;12.70;99.90;;;;;;4381650;32;20081;-66
2022/09/28 09:58:09;;;;;;;0.40;0.40;;;12.70;99.90;;;;;;4385984;32;20066;-68
2022/09/28 10:00:38;;;;;;;0.30;0.30;;;12.70;99.90;;;;;;4371624;32;20114;-66
2022/09/28 10:03:03;;;;;;;0.20;0.20;;;12.70;99.90;;;;;;4375657;32;20184;-66
2022/09/28 10:05:31;;;;;;;0.40;0.40;;;12.80;99.90;;;;;;4377341;32;20098;-66
2022/09/28 10:08:02;;;;;;;0.30;0.30;;;12.90;99.90;;;;;;4382397;32;20873;-66
2022/09/28 10:10:35;;;;;;;0.40;0.40;;;13.10;99.90;;;;;;4382962;32;20582;-67
2022/09/28 10:13:01;;;;;;;0.40;0.40;;;13.20;99.90;;;;;;4382875;32;20082;-67
2022/09/28 10:15:28;;;;;;;0.22;0.22;;;13.20;99.90;;;;;;4378425;32;22381;-66
2022/09/28 10:17:57;;;;;;;18.30;0.50;;;13.20;99.90;;;;;;4369740;32;21013;-67
2022/09/28 10:20:24;;;;;;;0.32;0.32;;;13.30;99.90;;;;;;4365245;32;20398;-67
2022/09/28 10:22:50;;;;;;;0.30;0.30;;;13.20;99.90;;;;;;4363351;32;20372;-66
2022/09/28 10:25:17;;;;;;;8.10;0.50;;;13.10;99.90;;;;;;4379145;32;20199;-67
2022/09/28 10:27:45;;;;;;;0.52;0.52;;;12.90;99.90;;;;;;4388231;32;20081;-67
2022/09/28 10:30:17;;;;;;;0.40;0.40;;;12.80;99.90;;;;;;4375370;32;21536;-65
2022/09/28 10:32:45;;;;;;;0.40;0.40;;;12.60;99.90;;;;;;4372054;32;20776;-65
2022/09/28 10:35:24;;;;;;;0.30;0.30;;;12.50;99.90;;;;;;4370024;32;20085;-66
2022/09/28 10:37:55;;;;;;;2.75;0.50;;;12.50;99.90;;;;;;4385699;32;20133;-67
2022/09/28 10:40:42;;;;;;;3.05;0.75;;;12.40;99.90;;;;;;4389107;32;20099;-66
2022/09/28 10:43:28;;;;;;;0.30;0.30;;;12.40;99.90;;;;;;4369345;32;20814;-66
2022/09/28 10:46:13;;;;;;;0.50;0.50;;;12.30;99.90;;;;;;4365147;32;20081;-65
2022/09/28 10:48:59;;;;;;;0.57;0.45;;;12.30;99.90;;;;;;4376916;32;20458;-66
2022/09/28 10:51:44;;;;;;;0.35;0.35;;;12.30;99.90;;;;;;4365029;32;20160;-67
2022/09/28 10:54:16;;;;;;;0.85;0.50;;;12.20;99.90;;;;;;4357929;32;21383;-67
2022/09/28 10:56:43;;;;;;;1.10;1.00;;;12.10;99.90;;;;;;4393107;27;20206;-77
2022/09/28 10:59:30;;;;;;;0.40;0.40;;;12.00;99.90;;;;;;4376569;32;20097;-75
2022/09/28 11:02:21;;;;;;;0.40;0.40;;;12.10;99.90;;;;;;4361266;32;21637;-76
2022/09/28 11:04:57;;;;;;;0.88;0.70;;;12.00;99.90;;;;;;4359217;32;20245;-75
2022/09/28 11:07:29;;;;;;;0.75;0.50;;;12.00;99.90;;;;;;4375619;32;20073;-75
2022/09/28 11:09:55;;;;;;;0.30;0.30;;;11.90;99.90;;;;;;4363834;32;20093;-75
2022/09/28 11:12:25;;;;;;;1.20;0.65;;;11.80;99.90;;;;;;4357301;32;20146;-75
2022/09/28 11:15:12;;;;;;;0.50;0.50;;;11.80;99.90;;;;;;4359731;32;20870;-75
2022/09/28 11:17:40;;;;;;;0.40;0.40;;;11.70;99.90;;;;;;4361823;32;20586;-75
2022/09/28 11:20:24;;;;;;;0.35;0.35;;;11.80;99.90;;;;;;4353512;32;20122;-76
2022/09/28 11:22:52;;;;;;;0.30;0.30;;;11.80;99.90;;;;;;4355340;32;20138;-75
2022/09/28 11:25:21;;;;;;;0.40;0.40;;;11.80;99.90;;;;;;4360199;32;20144;-75
2022/09/28 11:27:52;;;;;;;0.45;0.45;;;11.80;99.90;;;;;;4365164;32;20090;-75
2022/09/28 11:30:39;;;;;;;0.40;0.40;;;11.70;99.90;;;;;;4354874;32;20188;-75
2022/09/28 11:33:17;;;;;;;1.30;0.80;;;11.70;99.90;;;;;;4354050;32;20276;-76
2022/09/28 11:35:54;;;;;;;0.35;0.35;;;11.70;99.90;;;;;;4347083;32;20090;-76
2022/09/28 11:38:30;;;;;;;0.32;0.32;;;11.70;99.90;;;;;;4358262;32;20085;-76
2022/09/28 11:41:21;;;;;;;0.20;0.20;;;11.70;99.90;;;;;;4361772;32;20580;-75
2022/09/28 11:44:08;;;;;;;0.40;0.40;;;11.70;99.90;;;;;;4338303;32;20471;-76
2022/09/28 11:46:44;;;;;;;0.30;0.30;;;11.80;99.90;;;;;;4312823;32;20411;-76
2022/09/28 11:49:25;;;;;;;0.30;0.30;;;11.70;99.90;;;;;;4306081;32;20416;-76
2022/09/28 11:51:51;;;;;;;0.47;0.47;;;11.70;99.90;;;;;;4335771;32;20138;-76
2022/09/28 11:54:27;;;;;;;0.50;0.50;;;11.70;99.90;;;;;;4342947;32;20089;-76
2022/09/28 11:56:56;;;;;;;0.40;0.40;;;11.60;99.90;;;;;;4348443;32;20764;-76
2022/09/28 11:59:50;;;;;;;0.40;0.40;;;11.50;99.90;;;;;;4344784;32;20211;-76
2022/09/28 12:02:24;;;;;;;0.40;0.40;;;11.40;99.90;;;;;;4330594;32;20360;-78
2022/09/28 12:04:53;;;;;;;0.45;0.45;;;11.50;99.90;;;;;;4337109;32;21197;-76
2022/09/28 12:07:30;;;;;;;0.40;0.40;;;11.50;99.90;;;;;;4353897;32;20458;-78
2022/09/28 12:10:08;;;;;;;0.40;0.40;;;11.60;99.90;;;;;;4356935;32;20111;-77
2022/09/28 12:12:38;;;;;;;0.40;0.35;;;11.60;99.90;;;;;;4361989;32;20458;-77
2022/09/28 12:15:21;;;;;;;0.40;0.40;;;11.70;99.90;;;;;;4363157;32;20101;-77
2022/09/28 12:17:53;;;;;;;0.40;0.40;;;11.70;99.90;;;;;;4363130;32;20919;-77
2022/09/28 12:20:40;;;;;;;0.30;0.30;;;11.70;99.90;;;;;;4356583;32;20122;-76
2022/09/28 12:23:14;;;;;;;0.35;0.35;;;11.60;99.90;;;;;;4363432;32;20110;-77
2022/09/28 12:25:45;;;;;;;0.40;0.40;;;11.60;99.90;;;;;;4368718;32;20111;-76
2022/09/28 12:28:23;;;;;;;0.80;0.60;;;11.50;99.90;;;;;;4362184;32;20119;-76
2022/09/28 12:30:54;;;;;;;0.30;0.30;;;11.50;99.90;;;;;;4356425;32;20518;-77
2022/09/28 12:33:19;;;;;;;0.30;0.30;;;11.50;99.90;;;;;;4340332;32;20333;-76
2022/09/28 12:36:05;;;;;;;0.30;0.30;;;11.50;99.90;;;;;;4342310;32;20070;-76
2022/09/28 12:38:46;;;;;;;0.40;0.40;;;11.60;99.90;;;;;;4363509;32;20172;-77
2022/09/28 12:41:31;;;;;;;;;;;11.70;99.90;;;;;;4363862;32;20078;-77
2022/09/28 12:44:16;;;;;;;0.20;0.20;;;11.60;99.90;;;;;;4375058;32;19961;-77
2022/09/28 12:47:18;;;;;;;0.40;0.40;;;11.50;99.90;;;;;;4362067;32;20090;-77
2022/09/28 12:50:10;;;;;;;0.30;0.30;;;11.40;99.90;;;;;;4353226;32;20250;-77
2022/09/28 12:52:49;;;;;;;0.40;0.40;;;11.50;99.90;;;;;;4368593;32;20099;-76
2022/09/28 12:55:20;;;;;;;0.35;0.35;;;11.50;99.90;;;;;;4376877;32;20335;-78
2022/09/28 12:57:58;;;;;;;0.30;0.30;;;11.60;99.90;;;;;;4367593;32;20073;-77
2022/09/28 13:00:38;;;;;;;0.30;0.30;;;11.70;99.90;;;;;;4363327;32;20179;-76
2022/09/28 13:03:21;;;;;;;0.30;0.30;;;11.70;99.90;;;;;;4346738;32;20074;-76
2022/09/28 13:06:16;;;;;;;0.30;0.30;;;11.80;99.90;;;;;;4355726;32;20102;-76
2022/09/28 13:09:03;;;;;;;0.30;0.30;;;11.80;99.90;;;;;;4378650;32;20085;-78
2022/09/28 13:11:53;;;;;;;0.47;0.40;;;11.80;99.90;;;;;;4382379;32;20536;-77
2022/09/28 13:14:44;;;;;;;2.83;1.12;;;11.80;99.90;;;;;;4371207;32;20206;-76
2022/09/28 13:17:36;;;;;;;0.37;0.37;;;11.70;99.90;;;;;;4368829;32;20147;-77
2022/09/28 13:20:31;;;;;;;0.30;0.30;;;11.80;99.90;;;;;;4353506;32;20208;-76